Time;durP1;ratioP1;P1;durP2;ratioP2;P2;SDS_P1;SDS_P2;PMS_P1;PMS_P2;Temp;Humidity;BMP_temperature;BMP_pressure;BME280_temperature;BME280_humidity;BME280_pressure;Samples;Min_cycle;Max_cycle;Signal;HPM_P1;HPM_P2
2021/09/03 00:01:27;;;;;;;46.57;27.87;;;13.90;99.90;;;;;;5080568;28;20232;-65
2021/09/03 00:03:56;;;;;;;42.40;27.80;;;13.90;99.90;;;;;;5069001;28;20250;-64
2021/09/03 00:06:24;;;;;;;39.27;26.90;;;13.90;99.90;;;;;;5086666;28;20189;-64
2021/09/03 00:08:53;;;;;;;42.23;27.43;;;13.80;99.90;;;;;;5088269;28;20187;-65
2021/09/03 00:11:21;;;;;;;38.00;26.60;;;13.80;99.90;;;;;;5066374;28;20188;-65
2021/09/03 00:13:50;;;;;;;40.67;27.63;;;13.80;99.90;;;;;;5082434;28;20192;-65
2021/09/03 00:16:20;;;;;;;44.40;28.20;;;13.70;99.90;;;;;;5084369;28;20413;-65
2021/09/03 00:18:48;;;;;;;41.27;26.30;;;13.70;99.90;;;;;;5088232;28;20434;-65
2021/09/03 00:21:17;;;;;;;38.03;27.50;;;13.70;99.90;;;;;;5082188;28;20204;-65
2021/09/03 00:23:45;;;;;;;42.47;27.97;;;13.70;99.90;;;;;;5088160;28;20191;-65
2021/09/03 00:26:14;;;;;;;45.77;28.90;;;13.70;99.90;;;;;;5087984;28;20380;-65
2021/09/03 00:28:42;;;;;;;44.23;28.23;;;13.70;99.90;;;;;;5087964;28;20199;-65
2021/09/03 00:31:10;;;;;;;39.03;26.50;;;13.70;99.90;;;;;;5067189;28;20307;-65
2021/09/03 00:33:40;;;;;;;38.80;26.13;;;13.60;99.90;;;;;;5085555;28;20342;-64
2021/09/03 00:36:09;;;;;;;40.00;27.13;;;13.60;99.90;;;;;;5083085;28;20426;-65
2021/09/03 00:38:37;;;;;;;40.37;26.73;;;13.50;99.90;;;;;;5066599;28;20199;-64
2021/09/03 00:41:06;;;;;;;41.00;28.33;;;13.50;99.90;;;;;;5065033;28;20234;-65
2021/09/03 00:43:34;;;;;;;43.23;27.97;;;13.50;99.90;;;;;;5054340;28;20227;-64
2021/09/03 00:46:03;;;;;;;42.47;27.67;;;13.50;99.90;;;;;;5083157;28;20180;-64
2021/09/03 00:48:31;;;;;;;42.40;27.40;;;13.50;99.90;;;;;;5087167;28;20350;-65
2021/09/03 00:51:01;;;;;;;38.07;27.20;;;13.40;99.90;;;;;;5083710;28;20187;-65
2021/09/03 00:53:31;;;;;;;39.80;27.33;;;13.40;99.90;;;;;;5087727;28;20250;-65
2021/09/03 00:55:59;;;;;;;39.13;27.20;;;13.40;99.90;;;;;;5080959;28;20179;-65
2021/09/03 00:58:28;;;;;;;38.63;26.17;;;13.30;99.90;;;;;;5088827;28;20172;-65
2021/09/03 01:00:56;;;;;;;42.33;25.93;;;13.30;99.90;;;;;;5085325;28;20224;-65
2021/09/03 01:03:25;;;;;;;37.13;26.43;;;13.30;99.90;;;;;;5084016;28;20259;-65
2021/09/03 01:05:54;;;;;;;39.73;26.93;;;13.20;99.90;;;;;;5085846;28;20539;-65
2021/09/03 01:08:24;;;;;;;42.30;27.80;;;13.20;99.90;;;;;;5085023;28;20229;-65
2021/09/03 01:10:53;;;;;;;41.17;26.67;;;13.20;99.90;;;;;;5079228;28;20398;-65
2021/09/03 01:13:21;;;;;;;38.73;26.63;;;13.20;99.90;;;;;;5079250;28;20222;-65
2021/09/03 01:15:50;;;;;;;39.57;26.60;;;13.10;99.90;;;;;;5083875;28;20176;-64
2021/09/03 01:18:18;;;;;;;40.57;26.70;;;13.10;99.90;;;;;;5086666;28;20338;-65
2021/09/03 01:20:47;;;;;;;40.40;25.73;;;13.10;99.90;;;;;;5067746;28;20207;-65
2021/09/03 01:23:18;;;;;;;42.73;26.37;;;13.10;99.90;;;;;;5083627;28;20207;-65
2021/09/03 01:25:47;;;;;;;41.00;26.13;;;13.00;99.90;;;;;;5066042;28;20235;-64
2021/09/03 01:28:15;;;;;;;41.70;27.00;;;13.00;99.90;;;;;;5084538;28;20183;-65
2021/09/03 01:30:44;;;;;;;40.40;27.27;;;13.00;99.90;;;;;;5084355;28;20175;-65
2021/09/03 01:33:12;;;;;;;38.83;25.90;;;12.90;99.90;;;;;;5079200;28;20188;-65
2021/09/03 01:35:40;;;;;;;43.27;27.27;;;12.90;99.90;;;;;;5070692;28;20399;-65
2021/09/03 01:38:09;;;;;;;42.40;26.70;;;12.90;99.90;;;;;;5071564;28;20184;-65
2021/09/03 01:40:39;;;;;;;39.40;27.10;;;12.90;99.90;;;;;;5087648;28;20207;-65
2021/09/03 01:43:09;;;;;;;41.27;26.20;;;12.80;99.90;;;;;;5086948;28;20198;-64
2021/09/03 01:45:38;;;;;;;41.33;27.20;;;12.80;99.90;;;;;;5083550;28;20191;-65
2021/09/03 01:48:07;;;;;;;38.30;26.07;;;12.80;99.90;;;;;;5082909;28;20377;-65
2021/09/03 01:50:36;;;;;;;35.60;25.10;;;12.80;99.90;;;;;;5086320;28;20175;-65
2021/09/03 01:53:04;;;;;;;36.07;24.57;;;12.80;99.90;;;;;;5083210;28;20180;-65
2021/09/03 01:55:33;;;;;;;37.17;23.63;;;12.80;99.90;;;;;;5082776;28;20184;-65
2021/09/03 01:58:02;;;;;;;37.00;23.33;;;12.70;99.90;;;;;;5083335;28;20188;-65
2021/09/03 02:00:31;;;;;;;35.23;22.10;;;12.70;99.90;;;;;;5080051;28;20263;-65
2021/09/03 02:03:00;;;;;;;32.43;22.17;;;12.70;99.90;;;;;;5068976;28;20188;-65
2021/09/03 02:05:28;;;;;;;34.20;22.37;;;12.60;99.90;;;;;;5080955;28;20241;-65
2021/09/03 02:07:57;;;;;;;35.40;23.43;;;12.60;99.90;;;;;;5076073;28;20192;-65
2021/09/03 02:10:25;;;;;;;36.77;23.87;;;12.60;99.90;;;;;;5082213;28;20317;-64
2021/09/03 02:12:53;;;;;;;39.10;24.90;;;12.50;99.90;;;;;;5082155;28;20176;-65
2021/09/03 02:15:42;;;;;;;36.20;23.83;;;12.50;99.90;;;;;;5081306;28;20426;-65
2021/09/03 02:18:10;;;;;;;40.07;25.30;;;12.50;99.90;;;;;;5063514;28;20280;-65
2021/09/03 02:20:39;;;;;;;40.93;26.03;;;12.50;99.90;;;;;;5080879;28;20226;-65
2021/09/03 02:23:07;;;;;;;39.73;26.73;;;12.50;99.90;;;;;;5081995;28;20376;-65
2021/09/03 02:25:35;;;;;;;39.17;25.40;;;12.50;99.90;;;;;;5083478;28;20402;-64
2021/09/03 02:28:05;;;;;;;38.30;24.50;;;12.50;99.90;;;;;;5066305;28;20349;-64
2021/09/03 02:30:33;;;;;;;37.80;23.90;;;12.50;99.90;;;;;;5083618;28;20184;-65
2021/09/03 02:33:03;;;;;;;38.47;24.43;;;12.40;99.90;;;;;;5082051;28;20238;-65
2021/09/03 02:35:32;;;;;;;36.67;24.33;;;12.40;99.90;;;;;;5083892;28;20421;-65
2021/09/03 02:38:00;;;;;;;35.63;23.07;;;12.30;99.90;;;;;;5065239;28;20314;-65
2021/09/03 02:40:29;;;;;;;36.17;22.93;;;12.30;99.90;;;;;;5080791;28;20356;-65
2021/09/03 02:42:58;;;;;;;31.80;21.63;;;12.30;99.90;;;;;;5082270;28;20200;-64
2021/09/03 02:45:26;;;;;;;35.53;22.77;;;12.30;99.90;;;;;;5079210;28;20202;-65
2021/09/03 02:47:55;;;;;;;33.70;21.60;;;12.30;99.90;;;;;;5066347;28;20251;-66
2021/09/03 02:50:25;;;;;;;33.47;22.43;;;12.30;99.90;;;;;;5066975;28;20233;-65
2021/09/03 02:52:55;;;;;;;34.27;21.60;;;12.20;99.90;;;;;;5084740;28;20188;-65
2021/09/03 02:55:24;;;;;;;34.00;22.10;;;12.20;99.90;;;;;;5086999;28;20187;-64
2021/09/03 02:57:53;;;;;;;29.57;21.30;;;12.10;99.90;;;;;;5080550;28;20192;-65
2021/09/03 03:00:21;;;;;;;29.90;20.03;;;12.10;99.90;;;;;;5083039;28;20454;-65
2021/09/03 03:02:51;;;;;;;34.33;21.27;;;12.10;99.90;;;;;;5079180;28;20271;-65
2021/09/03 03:05:21;;;;;;;33.93;21.60;;;12.10;99.90;;;;;;5082153;28;20171;-65
2021/09/03 03:07:51;;;;;;;34.53;21.67;;;12.00;99.90;;;;;;5066383;28;20183;-65
2021/09/03 03:10:19;;;;;;;32.60;21.60;;;12.00;99.90;;;;;;5069342;28;20176;-65
2021/09/03 03:12:52;;;;;;;38.37;23.20;;;12.00;99.90;;;;;;5062522;28;20193;-65
2021/09/03 03:15:22;;;;;;;34.73;22.23;;;12.10;99.90;;;;;;5082811;28;20486;-65
2021/09/03 03:17:51;;;;;;;33.83;21.70;;;12.10;99.90;;;;;;5065295;28;20438;-65
2021/09/03 03:20:22;;;;;;;38.67;23.23;;;12.00;99.90;;;;;;5052528;28;20187;-65
2021/09/03 03:22:52;;;;;;;32.47;22.17;;;12.00;99.90;;;;;;5065260;28;20477;-65
2021/09/03 03:25:24;;;;;;;33.93;23.00;;;12.00;99.90;;;;;;5065139;28;20196;-65
2021/09/03 03:27:53;;;;;;;33.77;22.23;;;11.90;99.90;;;;;;5066712;28;20247;-65
2021/09/03 03:31:02;;;;;;;34.70;22.30;;;11.90;99.90;;;;;;5075745;28;20438;-65
2021/09/03 03:33:31;;;;;;;34.30;22.07;;;11.90;99.90;;;;;;5049143;28;20172;-65
2021/09/03 03:35:59;;;;;;;33.33;21.70;;;11.80;99.90;;;;;;5064680;28;20184;-65
2021/09/03 03:38:29;;;;;;;33.47;22.40;;;11.80;99.90;;;;;;5065909;28;20301;-65
2021/09/03 03:40:57;;;;;;;36.07;21.63;;;11.70;99.90;;;;;;5084482;28;20188;-65
2021/09/03 03:43:26;;;;;;;33.20;22.10;;;11.70;99.90;;;;;;5090305;28;20207;-65
2021/09/03 03:45:55;;;;;;;32.87;21.20;;;11.70;99.90;;;;;;5090259;28;20192;-65
2021/09/03 03:48:26;;;;;;;32.50;21.93;;;11.70;99.90;;;;;;5088701;28;20366;-65
2021/09/03 03:50:54;;;;;;;35.17;22.00;;;11.70;99.90;;;;;;5092388;28;20176;-64
2021/09/03 03:53:23;;;;;;;36.20;21.97;;;11.70;99.90;;;;;;5087341;28;20392;-64
2021/09/03 03:55:53;;;;;;;31.77;20.93;;;11.70;99.90;;;;;;5071106;28;20234;-65
2021/09/03 03:58:22;;;;;;;32.33;22.07;;;11.60;99.90;;;;;;5089114;28;20410;-65
2021/09/03 04:00:50;;;;;;;34.90;21.83;;;11.60;99.90;;;;;;5084086;28;20223;-64
2021/09/03 04:03:21;;;;;;;29.80;21.53;;;11.50;99.90;;;;;;5084829;28;20203;-65
2021/09/03 04:05:50;;;;;;;29.03;20.53;;;11.50;99.90;;;;;;5084178;28;20267;-65
2021/09/03 04:08:18;;;;;;;31.23;21.90;;;11.50;99.90;;;;;;5082045;28;20192;-65
2021/09/03 04:10:47;;;;;;;30.63;21.00;;;11.40;99.90;;;;;;5069681;28;20199;-65
2021/09/03 04:13:16;;;;;;;29.07;19.63;;;11.40;99.90;;;;;;5084795;28;20199;-64
2021/09/03 04:15:45;;;;;;;27.67;18.70;;;11.40;99.90;;;;;;5084973;28;20188;-65
2021/09/03 04:18:13;;;;;;;27.90;19.73;;;11.40;99.90;;;;;;5084136;28;20191;-65
2021/09/03 04:20:41;;;;;;;32.87;21.00;;;11.40;99.90;;;;;;5064591;28;20179;-65
2021/09/03 04:23:10;;;;;;;31.87;21.27;;;11.40;99.90;;;;;;5085147;28;20208;-65
2021/09/03 04:25:39;;;;;;;31.63;20.17;;;11.40;99.90;;;;;;5086600;28;20194;-65
2021/09/03 04:28:07;;;;;;;32.83;21.17;;;11.40;99.90;;;;;;5088832;28;20195;-64
2021/09/03 04:30:37;;;;;;;32.13;20.50;;;11.40;99.90;;;;;;5084630;28;20180;-65
2021/09/03 04:33:05;;;;;;;31.13;19.97;;;11.40;99.90;;;;;;5081982;28;20183;-65
2021/09/03 04:35:34;;;;;;;33.17;22.03;;;11.40;99.90;;;;;;5087338;28;20207;-64
2021/09/03 04:38:02;;;;;;;36.10;23.10;;;11.40;99.90;;;;;;5089553;28;20190;-64
2021/09/03 04:40:31;;;;;;;33.23;21.37;;;11.30;99.90;;;;;;5089505;28;20188;-64
2021/09/03 04:42:59;;;;;;;31.17;20.87;;;11.30;99.90;;;;;;5089673;28;20395;-65
2021/09/03 04:45:27;;;;;;;32.27;20.70;;;11.30;99.90;;;;;;5070835;28;20215;-65
2021/09/03 04:47:57;;;;;;;33.40;21.33;;;11.30;99.90;;;;;;5088512;28;20184;-64
2021/09/03 04:50:25;;;;;;;35.37;21.93;;;11.20;99.90;;;;;;5083854;28;20187;-65
2021/09/03 04:52:53;;;;;;;36.90;22.33;;;11.20;99.90;;;;;;5086426;28;20368;-65
2021/09/03 04:55:22;;;;;;;35.30;22.77;;;11.30;99.90;;;;;;5083290;28;20244;-64
2021/09/03 04:57:50;;;;;;;33.67;20.90;;;11.20;99.90;;;;;;5085814;28;20392;-65
2021/09/03 05:00:22;;;;;;;36.30;21.17;;;11.20;99.90;;;;;;5082046;28;20231;-65
2021/09/03 05:02:51;;;;;;;35.93;21.70;;;11.20;99.90;;;;;;5068172;28;20317;-65
2021/09/03 05:05:20;;;;;;;34.23;20.73;;;11.20;99.90;;;;;;5084872;28;20406;-65
2021/09/03 05:07:49;;;;;;;36.53;21.83;;;11.20;99.90;;;;;;5082248;28;20188;-65
2021/09/03 05:10:17;;;;;;;36.67;20.73;;;11.20;99.90;;;;;;5083044;28;20199;-65
2021/09/03 05:12:46;;;;;;;39.60;23.80;;;11.20;99.90;;;;;;5081395;28;20171;-64
2021/09/03 05:15:15;;;;;;;42.87;23.27;;;11.20;99.90;;;;;;5083370;28;20421;-64
2021/09/03 05:17:49;;;;;;;34.27;21.37;;;11.30;99.90;;;;;;5084719;28;20184;-65
2021/09/03 05:20:20;;;;;;;34.67;22.17;;;11.30;99.90;;;;;;5085622;28;20314;-65
2021/09/03 05:22:48;;;;;;;36.53;20.93;;;11.30;99.90;;;;;;5088683;28;20196;-65
2021/09/03 05:25:17;;;;;;;33.13;20.40;;;11.30;99.90;;;;;;5082764;28;20203;-64
2021/09/03 05:27:45;;;;;;;31.57;19.77;;;11.30;99.90;;;;;;5066547;28;20244;-65
2021/09/03 05:30:15;;;;;;;33.27;19.33;;;11.30;99.90;;;;;;5084826;28;20202;-64
2021/09/03 05:32:43;;;;;;;32.43;20.67;;;11.20;99.90;;;;;;5083054;28;20191;-64
2021/09/03 05:35:12;;;;;;;47.03;23.07;;;11.30;99.90;;;;;;5081117;28;20200;-65
2021/09/03 05:37:42;;;;;;;34.80;21.83;;;11.30;99.90;;;;;;5083804;28;20414;-64
2021/09/03 05:40:11;;;;;;;32.87;19.93;;;11.40;99.90;;;;;;5086800;28;20389;-65
2021/09/03 05:42:39;;;;;;;38.33;21.37;;;11.40;99.90;;;;;;5087117;28;20204;-64
2021/09/03 05:45:09;;;;;;;38.60;21.93;;;11.50;99.90;;;;;;5078175;28;20192;-64
2021/09/03 05:47:42;;;;;;;37.87;22.77;;;11.60;99.90;;;;;;5083044;28;20180;-64
2021/09/03 05:50:11;;;;;;;39.50;23.03;;;11.60;99.90;;;;;;5083227;28;20176;-64
2021/09/03 05:52:41;;;;;;;43.17;23.93;;;11.70;99.90;;;;;;5081896;28;20203;-65
2021/09/03 05:55:10;;;;;;;45.40;25.70;;;11.70;99.90;;;;;;5082047;28;20184;-65
2021/09/03 05:57:39;;;;;;;47.93;25.60;;;11.80;99.90;;;;;;5075347;28;20196;-65
2021/09/03 06:00:08;;;;;;;54.40;25.97;;;11.90;99.90;;;;;;5080711;28;20392;-65
2021/09/03 06:02:37;;;;;;;44.83;24.27;;;11.90;99.90;;;;;;5077495;28;20486;-65
2021/09/03 06:05:06;;;;;;;53.83;26.73;;;12.00;99.90;;;;;;5081555;28;20302;-64
2021/09/03 06:07:35;;;;;;;58.70;28.40;;;12.10;99.90;;;;;;5087446;28;20187;-65
2021/09/03 06:10:06;;;;;;;53.23;28.63;;;12.20;99.90;;;;;;5072744;28;20183;-65
2021/09/03 06:12:35;;;;;;;61.67;29.90;;;12.30;99.90;;;;;;5081883;28;20241;-65
2021/09/03 06:15:04;;;;;;;59.13;30.33;;;12.40;99.90;;;;;;5084401;28;20184;-65
2021/09/03 06:17:35;;;;;;;60.47;31.60;;;12.50;99.90;;;;;;5086443;28;20368;-64
2021/09/03 06:20:04;;;;;;;58.50;31.40;;;12.70;99.90;;;;;;5084320;28;20188;-65
2021/09/03 06:22:33;;;;;;;62.60;31.60;;;12.80;99.90;;;;;;5093625;28;20240;-64
2021/09/03 06:25:02;;;;;;;60.27;31.80;;;12.90;99.90;;;;;;5091089;28;20227;-65
2021/09/03 06:27:32;;;;;;;61.43;30.57;;;13.00;99.90;;;;;;5088233;28;20255;-65
2021/09/03 06:30:01;;;;;;;64.13;32.57;;;13.10;99.90;;;;;;5085536;28;20191;-64
2021/09/03 06:32:29;;;;;;;60.80;32.97;;;13.30;99.90;;;;;;5079909;28;20188;-65
2021/09/03 06:35:00;;;;;;;57.43;31.30;;;13.50;99.90;;;;;;5079544;28;20502;-64
2021/09/03 06:37:30;;;;;;;57.70;30.77;;;13.60;99.90;;;;;;5082509;28;20189;-65
2021/09/03 06:40:00;;;;;;;60.60;31.43;;;13.70;99.90;;;;;;5084385;28;20202;-65
2021/09/03 06:42:30;;;;;;;54.37;30.13;;;13.80;99.90;;;;;;5063921;28;20199;-64
2021/09/03 06:45:00;;;;;;;58.37;31.83;;;13.90;99.90;;;;;;5085623;28;20215;-65
2021/09/03 06:47:29;;;;;;;56.13;31.23;;;14.00;99.90;;;;;;5085907;28;20205;-65
2021/09/03 06:49:58;;;;;;;58.90;31.37;;;14.20;99.90;;;;;;5079192;28;20193;-65
2021/09/03 06:52:30;;;;;;;49.03;29.63;;;14.30;99.90;;;;;;5075916;28;20187;-65
2021/09/03 06:54:59;;;;;;;58.40;30.77;;;14.30;99.90;;;;;;5077958;28;20175;-65
2021/09/03 06:57:29;;;;;;;55.57;32.27;;;14.40;99.90;;;;;;5071971;28;20508;-64
2021/09/03 07:00:02;;;;;;;47.87;29.63;;;14.50;99.90;;;;;;5078407;28;20180;-65
2021/09/03 07:02:31;;;;;;;57.87;33.33;;;14.50;99.90;;;;;;5080305;28;20284;-65
2021/09/03 07:04:59;;;;;;;56.20;32.70;;;14.60;99.90;;;;;;5081721;28;20270;-65
2021/09/03 07:07:28;;;;;;;54.67;31.77;;;14.70;99.90;;;;;;5063692;28;20318;-65
2021/09/03 07:09:57;;;;;;;56.97;32.23;;;14.90;99.90;;;;;;5072143;28;20188;-65
2021/09/03 07:12:28;;;;;;;52.83;31.40;;;15.00;99.90;;;;;;5073640;28;20225;-65
2021/09/03 07:14:57;;;;;;;50.40;30.67;;;15.10;99.90;;;;;;5076866;28;20183;-65
2021/09/03 07:17:26;;;;;;;54.97;31.07;;;15.20;99.90;;;;;;5083280;28;20419;-65
2021/09/03 07:19:55;;;;;;;56.40;32.97;;;15.30;99.90;;;;;;5075141;28;20203;-65
2021/09/03 07:22:23;;;;;;;57.83;32.73;;;15.40;99.90;;;;;;5073268;28;20192;-65
2021/09/03 07:24:54;;;;;;;54.90;31.63;;;15.60;99.90;;;;;;5077934;28;20210;-65
2021/09/03 07:27:22;;;;;;;56.57;32.60;;;15.90;99.90;;;;;;5075914;28;20209;-65
2021/09/03 07:29:50;;;;;;;56.13;31.73;;;16.00;99.90;;;;;;5073949;28;20187;-65
2021/09/03 07:32:19;;;;;;;55.93;33.80;;;16.10;99.90;;;;;;5076270;28;20288;-65
2021/09/03 07:34:50;;;;;;;50.60;31.53;;;16.10;99.90;;;;;;5079143;28;20176;-65
2021/09/03 07:37:19;;;;;;;51.97;31.37;;;16.20;99.90;;;;;;5079866;28;20340;-65
2021/09/03 07:39:47;;;;;;;54.47;30.03;;;16.30;99.90;;;;;;5081680;28;20238;-65
2021/09/03 07:42:16;;;;;;;57.03;32.57;;;16.30;99.90;;;;;;5080463;28;20349;-65
2021/09/03 07:44:45;;;;;;;55.40;32.47;;;16.40;99.90;;;;;;5074839;28;20231;-65
2021/09/03 07:47:14;;;;;;;58.07;31.80;;;16.50;99.90;;;;;;5079117;28;20253;-65
2021/09/03 07:49:45;;;;;;;50.87;30.37;;;16.70;99.90;;;;;;5074805;28;20388;-65
2021/09/03 07:52:15;;;;;;;45.83;29.87;;;16.90;99.90;;;;;;5079068;28;20187;-66
2021/09/03 07:54:45;;;;;;;53.00;31.57;;;17.10;99.90;;;;;;5056634;28;20247;-65
2021/09/03 07:57:15;;;;;;;52.10;30.87;;;17.20;99.90;;;;;;5082547;28;20188;-65
2021/09/03 07:59:44;;;;;;;47.63;30.27;;;17.20;99.90;;;;;;5078138;28;20176;-65
2021/09/03 08:02:12;;;;;;;49.80;30.70;;;17.20;99.90;;;;;;5074914;28;20219;-65
2021/09/03 08:04:44;;;;;;;44.80;28.03;;;17.40;99.90;;;;;;5073535;28;20205;-65
2021/09/03 08:07:12;;;;;;;48.33;29.53;;;17.50;99.90;;;;;;5054196;28;20184;-65
2021/09/03 08:09:42;;;;;;;46.97;29.83;;;17.60;99.90;;;;;;5061304;28;20333;-65
2021/09/03 08:12:10;;;;;;;47.07;29.97;;;17.80;99.90;;;;;;5075370;28;20272;-65
2021/09/03 08:14:38;;;;;;;43.80;26.90;;;17.90;99.90;;;;;;5071230;28;20321;-66
2021/09/03 08:17:09;;;;;;;47.00;28.10;;;17.90;99.90;;;;;;5081184;28;20211;-66
2021/09/03 08:19:38;;;;;;;49.13;29.07;;;18.00;99.90;;;;;;5075190;28;20176;-65
2021/09/03 08:22:06;;;;;;;52.50;28.27;;;18.10;99.90;;;;;;5076776;28;20180;-64
2021/09/03 08:24:35;;;;;;;45.03;28.30;;;18.30;99.90;;;;;;5078331;28;20209;-65
2021/09/03 08:27:05;;;;;;;51.50;29.80;;;18.50;99.90;;;;;;5082926;28;20204;-65
2021/09/03 08:29:34;;;;;;;43.23;27.43;;;18.50;99.90;;;;;;5081537;28;20386;-65
2021/09/03 08:32:03;;;;;;;43.67;28.07;;;18.60;99.90;;;;;;5080633;28;20229;-65
2021/09/03 08:34:31;;;;;;;45.57;27.63;;;18.60;99.90;;;;;;5078527;28;20198;-65
2021/09/03 08:37:00;;;;;;;42.47;28.07;;;18.80;99.90;;;;;;5060101;28;20430;-65
2021/09/03 08:39:28;;;;;;;39.87;25.27;;;18.90;99.90;;;;;;5071656;28;20191;-65
2021/09/03 08:41:57;;;;;;;41.20;25.60;;;19.00;99.90;;;;;;5080757;28;20264;-65
2021/09/03 08:44:30;;;;;;;40.50;26.07;;;19.20;99.90;;;;;;5082103;28;20514;-65
2021/09/03 08:46:58;;;;;;;40.20;24.77;;;19.50;99.90;;;;;;5079103;28;20407;-65
2021/09/03 08:49:27;;;;;;;37.70;24.07;;;19.70;99.90;;;;;;5080505;28;20187;-65
2021/09/03 08:51:57;;;;;;;37.47;23.73;;;19.60;99.90;;;;;;5073812;28;20192;-66
2021/09/03 08:54:26;;;;;;;36.77;24.23;;;19.70;99.90;;;;;;5071490;28;20176;-65
2021/09/03 08:56:54;;;;;;;40.73;24.63;;;19.80;99.90;;;;;;5087121;28;20180;-66
2021/09/03 08:59:22;;;;;;;38.90;24.93;;;19.90;99.90;;;;;;5074664;28;20184;-66
2021/09/03 09:02:14;;;;;;;40.40;24.90;;;20.10;99.90;;;;;;5080828;28;20510;-67
2021/09/03 09:04:45;;;;;;;34.80;22.10;;;20.20;99.90;;;;;;5065494;28;20207;-65
2021/09/03 09:07:14;;;;;;;33.93;22.07;;;20.30;99.90;;;;;;5075352;28;20184;-66
2021/09/03 09:09:47;;;;;;;36.40;23.20;;;20.50;99.90;;;;;;5080339;28;20188;-65
2021/09/03 09:12:17;;;;;;;35.10;22.07;;;20.60;99.90;;;;;;5079167;28;20184;-65
2021/09/03 09:15:08;;;;;;;28.63;20.53;;;20.70;99.90;;;;;;5085010;28;20190;-65
2021/09/03 09:17:40;;;;;;;27.53;20.07;;;20.80;99.90;;;;;;5063819;28;20188;-66
2021/09/03 09:20:12;;;;;;;35.23;20.53;;;20.90;99.90;;;;;;5079548;28;20188;-65
2021/09/03 09:22:54;;;;;;;31.17;19.73;;;21.10;99.90;;;;;;5078090;28;20437;-65
2021/09/03 09:25:24;;;;;;;29.37;20.43;;;21.20;99.90;;;;;;5083670;28;20204;-65
2021/09/03 09:27:54;;;;;;;31.67;20.30;;;21.40;99.90;;;;;;5080499;28;20184;-65
2021/09/03 09:30:26;;;;;;;30.97;20.57;;;21.40;99.90;;;;;;5082459;28;20383;-65
2021/09/03 09:33:14;;;;;;;30.97;20.77;;;21.40;99.90;;;;;;5083924;28;20197;-65
2021/09/03 09:35:44;;;;;;;26.87;17.77;;;21.50;99.90;;;;;;5060565;28;20237;-65
2021/09/03 09:38:13;;;;;;;25.87;17.90;;;21.70;99.90;;;;;;5080240;28;20185;-65
2021/09/03 09:40:47;;;;;;;30.67;19.57;;;22.10;99.90;;;;;;5079144;28;20191;-65
2021/09/03 09:43:36;;;;;;;27.90;18.10;;;22.30;99.90;;;;;;5088566;28;20232;-65
2021/09/03 09:46:17;;;;;;;26.37;17.53;;;22.30;99.90;;;;;;5077529;28;20212;-65
2021/09/03 09:49:17;;;;;;;25.77;16.47;;;22.40;99.90;;;;;;5081368;28;20256;-62
2021/09/03 09:51:49;;;;;;;28.73;17.70;;;22.60;99.90;;;;;;5053580;28;20223;-63
2021/09/03 09:54:21;;;;;;;24.23;16.17;;;22.80;99.90;;;;;;5062376;28;20202;-63
2021/09/03 09:56:52;;;;;;;24.13;16.97;;;22.80;99.90;;;;;;5078157;28;20176;-63
2021/09/03 09:59:22;;;;;;;26.60;15.70;;;23.00;99.90;;;;;;5075079;28;20246;-63
2021/09/03 10:01:51;;;;;;;23.27;15.47;;;23.10;99.90;;;;;;5084333;28;20265;-63
2021/09/03 10:04:23;;;;;;;29.47;17.17;;;23.00;99.90;;;;;;5087133;28;20263;-62
2021/09/03 10:06:54;;;;;;;23.40;15.67;;;23.10;99.90;;;;;;5076354;28;20217;-62
2021/09/03 10:09:24;;;;;;;22.63;13.53;;;23.20;99.90;;;;;;5057070;28;20181;-62
2021/09/03 10:11:54;;;;;;;25.00;15.70;;;23.30;99.90;;;;;;5073144;28;20190;-62
2021/09/03 10:14:26;;;;;;;20.37;14.67;;;23.80;99.90;;;;;;5082503;28;20471;-64
2021/09/03 10:16:57;;;;;;;21.93;15.20;;;23.90;99.90;;;;;;5064988;28;20252;-63
2021/09/03 10:19:28;;;;;;;19.37;13.17;;;23.80;99.90;;;;;;5081337;28;20459;-63
2021/09/03 10:22:02;;;;;;;22.33;13.67;;;23.90;99.90;;;;;;5079936;28;20413;-62
2021/09/03 10:24:31;;;;;;;19.67;13.20;;;24.10;99.90;;;;;;5063548;28;20194;-63
2021/09/03 10:27:00;;;;;;;23.30;14.23;;;24.00;99.90;;;;;;5080455;28;20202;-63
2021/09/03 10:29:33;;;;;;;17.90;13.03;;;24.10;99.90;;;;;;5073034;28;20200;-63
2021/09/03 10:32:17;;;;;;;20.20;12.00;;;24.20;99.90;;;;;;5073311;28;20181;-63
2021/09/03 10:35:04;;;;;;;16.13;10.80;;;24.30;99.90;;;;;;5077632;28;20197;-62
2021/09/03 10:37:37;;;;;;;14.93;11.57;;;24.60;99.90;;;;;;5078469;28;20198;-62
2021/09/03 10:40:21;;;;;;;15.90;11.03;;;24.70;99.90;;;;;;5082941;28;20191;-62
2021/09/03 10:42:55;;;;;;;15.53;10.30;;;24.80;99.90;;;;;;5077748;28;20194;-62
2021/09/03 10:45:29;;;;;;;13.70;10.33;;;24.70;99.90;;;;;;5074402;28;20244;-63
2021/09/03 10:48:07;;;;;;;15.93;10.93;;;24.90;99.90;;;;;;5076951;28;20180;-63
2021/09/03 10:50:39;;;;;;;17.27;10.53;;;25.10;99.90;;;;;;5058438;28;20180;-62
2021/09/03 10:53:22;;;;;;;11.53;10.23;;;25.20;99.90;;;;;;5078813;28;20625;-62
2021/09/03 10:55:53;;;;;;;13.97;10.63;;;25.20;99.90;;;;;;5065191;28;20219;-63
2021/09/03 10:58:46;;;;;;;13.83;10.13;;;25.40;99.90;;;;;;5066637;28;20180;-63
2021/09/03 11:01:34;;;;;;;11.20;10.00;;;25.50;99.90;;;;;;5081823;28;20207;-62
2021/09/03 11:04:10;;;;;;;13.57;10.27;;;25.70;99.90;;;;;;5078893;28;20184;-63
2021/09/03 11:06:42;;;;;;;16.93;10.40;;;26.10;99.90;;;;;;5077706;28;20247;-62
2021/09/03 11:09:23;;;;;;;13.53;10.73;;;26.10;99.90;;;;;;5077471;28;20184;-62
2021/09/03 11:11:53;;;;;;;11.80;9.07;;;26.00;99.90;;;;;;5073411;28;20232;-63
2021/09/03 11:14:23;;;;;;;10.73;8.63;;;26.00;99.90;;;;;;5072349;28;20196;-63
2021/09/03 11:16:54;;;;;;;13.23;10.53;;;25.80;99.90;;;;;;5062787;28;20193;-62
2021/09/03 11:19:24;;;;;;;15.23;9.13;;;25.70;99.90;;;;;;5064517;28;20189;-62
2021/09/03 11:21:57;;;;;;;9.80;8.27;;;25.50;99.90;;;;;;5074101;28;21616;-63
2021/09/03 11:24:29;;;;;;;12.10;9.40;;;25.60;99.90;;;;;;5059005;28;20188;-63
2021/09/03 11:26:58;;;;;;;12.27;9.60;;;25.70;99.90;;;;;;5076781;28;20997;-63
2021/09/03 11:29:29;;;;;;;12.03;10.13;;;25.90;99.90;;;;;;5063929;28;20302;-63
2021/09/03 11:32:06;;;;;;;11.23;9.57;;;26.00;99.90;;;;;;5080964;28;20180;-63
2021/09/03 11:34:47;;;;;;;14.93;10.77;;;26.10;99.90;;;;;;5059807;28;20248;-63
2021/09/03 11:37:35;;;;;;;12.47;9.00;;;26.30;99.90;;;;;;5075394;28;21159;-63
2021/09/03 11:40:13;;;;;;;12.13;9.77;;;26.20;99.90;;;;;;5071600;28;20246;-65
2021/09/03 11:42:43;;;;;;;14.00;10.10;;;26.40;99.90;;;;;;5074939;28;20225;-63
2021/09/03 11:45:16;;;;;;;15.53;10.30;;;26.60;99.90;;;;;;5075480;28;20197;-63
2021/09/03 11:47:53;;;;;;;12.38;9.93;;;26.80;99.90;;;;;;5072930;28;20399;-63
2021/09/03 11:50:27;;;;;;;15.52;10.77;;;27.00;99.90;;;;;;5081756;28;20188;-62
2021/09/03 11:52:58;;;;;;;13.88;10.98;;;26.90;99.90;;;;;;5074518;28;20207;-62
2021/09/03 11:55:27;;;;;;;14.77;10.15;;;26.90;99.90;;;;;;5076251;28;20189;-65
2021/09/03 11:58:01;;;;;;;12.70;10.10;;;26.70;99.90;;;;;;5078919;28;20176;-64
2021/09/03 12:00:33;;;;;;;14.40;9.33;;;26.70;99.90;;;;;;5078759;28;20365;-65
2021/09/03 12:03:04;;;;;;;14.00;10.43;;;26.60;99.90;;;;;;5079046;28;20295;-65
2021/09/03 12:05:33;;;;;;;21.73;11.00;;;26.70;99.90;;;;;;5076686;28;20414;-65
2021/09/03 12:08:09;;;;;;;14.27;11.10;;;26.80;99.90;;;;;;5060934;28;20229;-65
2021/09/03 12:10:44;;;;;;;11.63;9.27;;;26.90;99.90;;;;;;5077638;28;20196;-65
2021/09/03 12:13:15;;;;;;;12.93;9.97;;;27.00;99.90;;;;;;5077293;28;20187;-65
2021/09/03 12:15:46;;;;;;;12.93;10.30;;;27.30;99.90;;;;;;5066150;28;20184;-65
2021/09/03 12:18:23;;;;;;;10.97;9.57;;;27.60;99.90;;;;;;5058223;28;20254;-65
2021/09/03 12:20:55;;;;;;;12.50;9.03;;;27.50;99.90;;;;;;5079165;28;20184;-65
2021/09/03 12:23:26;;;;;;;14.13;11.80;;;27.40;99.90;;;;;;5077617;28;20227;-64
2021/09/03 12:26:03;;;;;;;14.77;10.30;;;27.40;99.90;;;;;;5062625;28;20185;-64
2021/09/03 12:28:31;;;;;;;21.50;9.13;;;27.30;99.90;;;;;;5076166;28;20221;-65
2021/09/03 12:31:09;;;;;;;9.53;8.33;;;27.20;99.90;;;;;;5082501;28;20183;-65
2021/09/03 12:33:47;;;;;;;8.37;7.53;;;27.00;99.90;;;;;;5083751;28;20183;-65
2021/09/03 12:36:19;;;;;;;10.30;8.70;;;27.00;99.90;;;;;;5089404;28;20179;-66
2021/09/03 12:38:53;;;;;;;10.83;9.40;;;27.00;99.90;;;;;;5079813;28;20185;-65
2021/09/03 12:41:28;;;;;;;9.90;8.90;;;27.00;99.90;;;;;;5085864;28;20188;-64
2021/09/03 12:43:58;;;;;;;13.50;10.27;;;26.80;99.90;;;;;;5077701;28;20292;-65
2021/09/03 12:46:32;;;;;;;13.90;9.77;;;26.70;99.90;;;;;;5057102;28;20208;-65